Thunder radar more information blitzortung!


Radar de pluja more information rain snow radar


Visita la nostra xarxa de llocs de meteo:

Template documentation
and downloads

And another site



No particular awareness of the weather is required.    There are no Weather-warnings

Pagina Historial Weather Underground text

Diari Resum May 18, 2017 Unitats:  Imperial    Mètric   Tant
« Previous Dia
SegĂźent Dia »
Diari Setmana Mensual Anual Personalitzada
  Maxima: Minima: Media:
Temperatura: 79.7 °F 50 °F 64.4 °F
Punt de rosada: 55.6 °F 39.7 °F 49.8 °F
Humitat: 78 % 40 % 61 %
Wind Speed: 13.8 mph 0 mph 4.3 mph
RĂ fegues de vent: 13.8 mph - -
Vent:- - SSW
Pression baro: 30.1 in 29.8 in -
Precipitacions: 0.05 in    
Historical Graphs
 
 
Dades de taula per May 18, 2017
Temps Temperatura Punt de rosada Pression baro Vent Wind Speed RĂ fegues de vent Humitat Rainfall Rate (Hourly)
00:03 65.3 °F 44.4 °F 30 in SW 1.2 mph 1.2 mph 47 % 0 in
00:05 57.2 °F 45.1 °F 30 in Calm   1 mph 64 % 0 in
00:08 65.3 °F 44.4 °F 30 in SW 1.2 mph   47 % 0 in
00:13 65.1 °F 45 °F 30 in Calm     48 % 0 in
00:15 56.7 °F 44.6 °F 29.9 in Calm   1 mph 64 % 0 in
00:18 64.9 °F 44.8 °F 30 in Calm     48 % 0 in
00:23 64.8 °F 45.1 °F 30 in SW 1.2 mph   49 % 0 in
00:25 56.5 °F 44.4 °F 30 in Calm     64 % 0 in
00:28 64.6 °F 45 °F 30 in Calm     49 % 0 in
00:33 64.4 °F 45.3 °F 30 in Calm     50 % 0 in
00:35 56.3 °F 44.2 °F 30 in Calm     64 % 0 in
00:38 64.4 °F 45.3 °F 30 in Calm     50 % 0 in
00:45 56.3 °F 44.2 °F 30 in Calm     64 % 0 in
00:55 56.3 °F 44.8 °F 30 in Calm     65 % 0 in
01:05 56.5 °F 44.4 °F 30 in SW 1 mph 2 mph 64 % 0 in
01:15 56.5 °F 44.4 °F 30 in WSW 1 mph 2 mph 64 % 0 in
01:25 55.8 °F 43.9 °F 30 in SW 1 mph 2 mph 64 % 0 in
01:35 55.6 °F 44.1 °F 30 in Calm   1 mph 65 % 0 in
01:45 55.4 °F 44.2 °F 30 in Calm   2 mph 66 % 0 in
01:55 55.4 °F 44.2 °F 30 in Calm   2 mph 66 % 0 in
02:05 55.8 °F 44.6 °F 30 in SSE 1 mph 2 mph 66 % 0 in
02:15 56.5 °F 45.3 °F 30 in Calm   1 mph 66 % 0 in
02:25 57 °F 45.3 °F 30 in SSW 2 mph 2 mph 65 % 0 in
02:35 57.2 °F 45.1 °F 30 in SW 2 mph 2 mph 64 % 0 in
02:55 58.1 °F 46 °F 30 in SW 2 mph 2 mph 64 % 0 in
03:05 58.5 °F 46.2 °F 30 in Calm   2 mph 64 % 0 in
03:15 59.2 °F 46.6 °F 30 in SW 1 mph 2 mph 63 % 0 in
03:25 61 °F 47.5 °F 30 in SW 2 mph 3 mph 61 % 0 in
03:35 61.9 °F 47.8 °F 30 in ENE 2 mph 3 mph 60 % 0 in
03:45 63.1 °F 48 °F 30 in NE 1 mph 3 mph 58 % 0 in
03:55 64 °F 48 °F 30 in NE 2 mph 3 mph 56 % 0 in
04:05 65.3 °F 48.7 °F 30 in NE 1 mph 3 mph 55 % 0 in
04:15 65.3 °F 48.2 °F 30 in Calm   3 mph 54 % 0 in
04:25 64.6 °F 47.7 °F 30 in NE 2 mph 3 mph 54 % 0 in
04:35 64.8 °F 47.7 °F 30 in NE 1 mph 2 mph 54 % 0 in
04:45 66 °F 48.9 °F 30 in ENE 3 mph 4 mph 54 % 0 in
04:55 66.2 °F 48.6 °F 30 in NE 3 mph 4 mph 53 % 0 in
05:10 67.8 °F 50.2 °F 30 in ENE 3 mph 5 mph 53 % 0 in
05:20 68.2 °F 50.4 °F 30 in ENE 5 mph 6 mph 53 % 0 in
05:30 68.4 °F 50.5 °F 30 in ENE 6 mph 6 mph 53 % 0 in
05:40 68.2 °F 50.4 °F 30 in ESE 5 mph 5 mph 53 % 0 in
10:44 68.5 °F 51.3 °F 30 in East 3.5 mph 4 mph 54 % 0 in
10:45 68.5 °F 51.3 °F 30 in East 3.5 mph 4 mph 54 % 0 in
10:46 68.7 °F 50.9 °F 30 in ENE 5.8 mph 5.8 mph 53 % 0 in
10:51 69.1 °F 51.6 °F 30 in ESE 6.2 mph 6.2 mph 54 % 0 in
10:56 69.6 °F 52.2 °F 30 in East 4.7 mph 4.7 mph 54 % 0 in
11:01 70 °F 52.5 °F 30 in SE 6.9 mph 6.9 mph 54 % 0 in
11:06 71.1 °F 53.1 °F 30 in SE 5.8 mph 5.8 mph 53 % 0 in
11:11 71.2 °F 53.2 °F 30 in ESE 5.8 mph 5.8 mph 53 % 0 in
11:12 71.2 °F 53.2 °F 30 in SE 5.6 mph 5.6 mph 53 % 0 in
11:17 71.2 °F 53.8 °F 30 in WSW 4.7 mph 4.7 mph 54 % 0 in
11:22 71.8 °F 53.8 °F 30 in NNE 4.9 mph 4.9 mph 53 % 0 in
11:27 71.6 °F 53.6 °F 30 in East 5.8 mph 5.8 mph 53 % 0 in
11:32 71.6 °F 53.6 °F 30 in SSE 4.6 mph 4.6 mph 53 % 0 in
11:37 72.3 °F 54.1 °F 30 in SE 5.8 mph 5.8 mph 53 % 0 in
11:42 72.3 °F 54.1 °F 29.9 in ENE 8.1 mph 8.1 mph 53 % 0 in
11:47 72.7 °F 54.7 °F 29.9 in ENE 5.9 mph 5.9 mph 53 % 0 in
11:52 72.5 °F 54.3 °F 29.9 in ESE 5.8 mph 5.8 mph 53 % 0 in
11:57 73 °F 54.9 °F 30 in SSE 6.9 mph 6.9 mph 53 % 0 in
12:02 73 °F 54.9 °F 30 in ENE 8.1 mph 8.1 mph 53 % 0 in
12:07 72.5 °F 54 °F 30 in ESE 5.8 mph 5.9 mph 52 % 0 in
12:12 73 °F 54.3 °F 29.9 in ESE 6.9 mph 6.9 mph 52 % 0 in
12:15 73.4 °F 54.1 °F 29.9 in SE 8.1 mph 8.1 mph 51 % 0 in
12:20 73.2 °F 54.5 °F 29.9 in ESE 5.9 mph 5.9 mph 52 % 0 in
12:25 73 °F 54.3 °F 29.9 in East 5.9 mph 5.9 mph 52 % 0 in
12:30 73.6 °F 53.2 °F 29.9 in ENE 5.8 mph 5.8 mph 49 % 0 in
12:35 73.6 °F 52.2 °F 29.9 in ESE 12.7 mph 12.7 mph 47 % 0 in
12:40 73.9 °F 53.1 °F 29.9 in ENE 7.4 mph 7.4 mph 48 % 0 in
12:45 74.1 °F 52 °F 29.9 in SE 9.8 mph 9.8 mph 46 % 0 in
12:50 75.2 °F 52.3 °F 29.9 in SSE 5.8 mph 5.8 mph 45 % 0 in
12:55 74.7 °F 52.5 °F 29.9 in North 8.1 mph 8.1 mph 46 % 0 in
13:00 74.5 °F 52.3 °F 29.9 in ESE 12.7 mph 12.7 mph 46 % 0 in
13:05 74.3 °F 51.1 °F 29.9 in NE 10.4 mph 10.4 mph 44 % 0 in
13:10 74.7 °F 52 °F 29.9 in North 6.2 mph 6.2 mph 45 % 0 in
13:15 75.4 °F 52.5 °F 29.9 in SE 10 mph 10 mph 45 % 0 in
13:20 75.2 °F 52.3 °F 29.9 in ENE 11.5 mph 11.5 mph 45 % 0 in
13:25 75.6 °F 52.2 °F 29.8 in East 6.9 mph 6.9 mph 44 % 0 in
13:30 75.7 °F 51.6 °F 29.8 in SSW 6.9 mph 6.9 mph 43 % 0 in
13:35 75.6 °F 52.2 °F 29.8 in North 11.5 mph 11.5 mph 44 % 0 in
13:40 75.4 °F 52.5 °F 29.9 in NNE 5.8 mph 5.8 mph 45 % 0 in
13:45 75.7 °F 52.9 °F 29.9 in ENE 8.5 mph 8.5 mph 45 % 0 in
13:50 75 °F 52.9 °F 29.9 in NE 5.8 mph 5.8 mph 46 % 0 in
13:55 74.7 °F 52.5 °F 29.9 in ESE 8.1 mph 8.1 mph 46 % 0 in
14:00 74.5 °F 52.3 °F 29.9 in East 6.9 mph 6.9 mph 46 % 0 in
14:05 74.3 °F 52.2 °F 29.9 in East 9.8 mph 9.8 mph 46 % 0 in
14:10 75.2 °F 53.1 °F 29.9 in ENE 8.1 mph 8.1 mph 46 % 0 in
14:15 74.7 °F 53.1 °F 29.9 in NE 9.2 mph 9.2 mph 47 % 0 in
14:20 74.7 °F 53.1 °F 29.9 in ENE 6.9 mph 6.9 mph 47 % 0 in
14:25 74.5 °F 53.4 °F 29.8 in ESE 4.9 mph 4.9 mph 48 % 0 in
14:30 75.6 °F 55 °F 29.8 in WNW 8.1 mph 8.1 mph 49 % 0 in
14:35 75.6 °F 55 °F 29.8 in ESE 8.1 mph 8.1 mph 49 % 0 in
14:40 75.7 °F 55.2 °F 29.9 in ESE 6.4 mph 6.4 mph 49 % 0 in
14:45 75.6 °F 55 °F 29.9 in ESE 6.9 mph 6.9 mph 49 % 0 in
14:50 75.7 °F 55.2 °F 29.9 in SE 5.8 mph 5.8 mph 49 % 0 in
14:55 76.6 °F 55.6 °F 29.9 in SW 3.5 mph 3.5 mph 48 % 0 in
15:00 78.1 °F 54.3 °F 29.9 in SSW 4.9 mph 4.9 mph 44 % 0 in
15:05 78.3 °F 54.7 °F 29.9 in SW 3.5 mph 3.5 mph 44 % 0 in
15:10 79.2 °F 54.7 °F 29.9 in SW 6.9 mph 6.9 mph 43 % 0 in
15:15 79.2 °F 54.1 °F 29.9 in WNW 5.8 mph 5.8 mph 42 % 0 in
15:20 79.7 °F 54.7 °F 29.9 in SSW 5.9 mph 5.9 mph 42 % 0 in
15:25 78.8 °F 53.1 °F 29.8 in South 10.4 mph 10.4 mph 41 % 0 in
15:30 78.8 °F 53.1 °F 29.8 in SW 9.2 mph 9.2 mph 41 % 0 in
15:35 78.8 °F 52.3 °F 29.8 in SSW 9.2 mph 9.2 mph 40 % 0 in
15:40 78.4 °F 52.2 °F 29.8 in SE 5.8 mph 5.8 mph 40 % 0 in
15:45 78.4 °F 52.9 °F 29.8 in SW 4.6 mph 4.6 mph 41 % 0 in
15:50 78.8 °F 53.1 °F 29.8 in WSW 3.5 mph 3.5 mph 41 % 0 in
15:55 78.8 °F 52.3 °F 29.8 in SSW 10.4 mph 10.4 mph 40 % 0 in
15:57 77.7 °F 51.4 °F 29.8 in SW 9.2 mph 9.2 mph 40 % 0 in
16:02 77.5 °F 52 °F 29.8 in SW 6.9 mph 6.9 mph 41 % 0 in
16:07 77 °F 50.7 °F 29.8 in SW 3.5 mph 3.5 mph 40 % 0 in
16:12 77 °F 50.7 °F 29.8 in SSW 10.5 mph 10.5 mph 40 % 0 in
16:17 76.6 °F 51.3 °F 29.8 in SSW 6.9 mph 6.9 mph 41 % 0 in
16:22 76.1 °F 50.7 °F 29.8 in WNW 9.2 mph 9.2 mph 41 % 0 in
16:27 73.6 °F 50.4 °F 29.9 in WNW 12.7 mph 12.7 mph 44 % 0 in
16:32 72.7 °F 50.7 °F 29.9 in SSW 9.2 mph 9.2 mph 46 % 0 in
16:37 72.1 °F 50.7 °F 29.9 in WNW 9.2 mph 9.2 mph 47 % 0 in
16:42 71.4 °F 50.7 °F 29.9 in NNW 12.7 mph 12.7 mph 48 % 0 in
16:47 70.3 °F 50.4 °F 29.9 in West 13.8 mph 13.8 mph 49 % 0 in
16:52 68.9 °F 51.1 °F 29.9 in East 12.7 mph 12.7 mph 53 % 0 in
16:57 67.3 °F 51.4 °F 29.9 in West 5.8 mph 5.8 mph 57 % 0 in
17:02 66.4 °F 51.6 °F 29.9 in WSW 5.8 mph 5.8 mph 59 % 0 in
17:07 65.5 °F 52.2 °F 29.9 in WSW 6.9 mph 6.9 mph 62 % 0 in
17:12 65.3 °F 52 °F 29.9 in WSW 4.6 mph 4.6 mph 62 % 0 in
17:17 65.7 °F 52.3 °F 29.9 in West 10.4 mph 10.4 mph 62 % 0 in
17:22 65.5 °F 52.5 °F 29.9 in WSW 8.1 mph 8.1 mph 63 % 0 in
17:27 65.3 °F 52 °F 29.9 in West 6.9 mph 6.9 mph 62 % 0 in
17:32 64.9 °F 52 °F 29.9 in WSW 5.8 mph 5.8 mph 63 % 0 in
17:37 64.6 °F 51.6 °F 29.9 in West 5.8 mph 5.8 mph 63 % 0 in
17:42 64.4 °F 51.4 °F 29.9 in WSW 5.8 mph 5.8 mph 63 % 0 in
17:47 63.7 °F 50.7 °F 29.9 in SW 4.6 mph 4.6 mph 63 % 0 in
17:52 63 °F 50.5 °F 29.9 in SW 8.1 mph 8.1 mph 64 % 0 in
17:57 63 °F 51.1 °F 29.9 in WSW 5.8 mph 5.8 mph 65 % 0 in
18:02 63 °F 51.8 °F 29.9 in WSW 4.6 mph 4.6 mph 67 % 0 in
18:07 62.6 °F 51.4 °F 29.9 in WSW 4.6 mph 4.6 mph 67 % 0 in
18:12 62.6 °F 52 °F 29.9 in WSW 5.8 mph 5.8 mph 68 % 0 in
18:17 62.6 °F 52 °F 29.9 in SW 4.6 mph 4.6 mph 68 % 0 in
18:22 62.6 °F 52 °F 29.9 in West 5.8 mph 5.8 mph 68 % 0 in
18:27 62.4 °F 52.5 °F 29.9 in SW 3.5 mph 3.5 mph 70 % 0 in
18:32 62.2 °F 52.7 °F 29.9 in West 3.1 mph 3.1 mph 71 % 0 in
18:37 62.1 °F 52.2 °F 29.9 in SW 5.6 mph 5.6 mph 70 % 0 in
18:42 62.1 °F 52.5 °F 29.9 in SW 2.9 mph 2.9 mph 71 % 0 in
18:47 61.9 °F 52.3 °F 29.9 in SW 3.8 mph 3.8 mph 71 % 0 in
18:52 61.9 °F 52.3 °F 29.9 in SW 3.5 mph 3.5 mph 71 % 0 in
18:57 62.1 °F 52.5 °F 29.9 in WSW 4.6 mph 4.6 mph 71 % 0 in
19:02 62.2 °F 53.4 °F 29.9 in SW 1.2 mph 1.2 mph 73 % 0 in
19:07 62.4 °F 53.2 °F 29.9 in WSW 3.5 mph 3.5 mph 72 % 0 in
19:12 62.4 °F 53.2 °F 29.9 in SW 2.4 mph 2.4 mph 72 % 0 in
19:17 62.2 °F 52.3 °F 29.9 in WNW 3.5 mph 3.5 mph 70 % 0 in
19:20 55.2 °F 45.1 °F 30 in West 3 mph 5 mph 69 % 0.05 in
19:22 62.4 °F 52.9 °F 29.9 in West 2.3 mph 2.3 mph 71 % 0 in
19:27 62.6 °F 52.7 °F 29.9 in West 2.3 mph 2.3 mph 70 % 0 in
19:30 54.9 °F 45 °F 30 in West 2 mph 2 mph 69 % 0.05 in
19:32 62.6 °F 52.7 °F 29.9 in WSW 2.3 mph 2.3 mph 70 % 0 in
19:37 62.6 °F 53.1 °F 29.9 in SW 1.6 mph   71 % 0 in
19:40 54.7 °F 44.8 °F 30 in Calm   3 mph 69 % 0 in
19:42 62.4 °F 53.6 °F 29.9 in SW 2.3 mph 2.3 mph 73 % 0 in
19:47 62.1 °F 52.9 °F 29.9 in WSW 2.3 mph 2.3 mph 72 % 0 in
19:50 54.5 °F 44.2 °F 30 in West 1 mph 2 mph 68 % 0 in
19:52 62.1 °F 53.8 °F 29.9 in NW 1.6 mph 1.6 mph 74 % 0 in
19:57 61.9 °F 53.4 °F 29.9 in Calm     74 % 0 in
20:00 54.1 °F 43.9 °F 30 in West 3 mph 3 mph 68 % 0 in
20:02 61.9 °F 53.4 °F 29.9 in North 3.5 mph 3.5 mph 74 % 0 in
20:07 61.9 °F 54 °F 29.9 in East 1.2 mph   75 % 0 in
20:10 54 °F 43.5 °F 30 in West 2 mph 3 mph 68 % 0 in
20:12 61.9 °F 53.4 °F 29.9 in NNE 2.3 mph   74 % 0 in
20:13 61.9 °F 54 °F 29.9 in North 2.3 mph 2.3 mph 75 % 0 in
20:18 61.7 °F 53.8 °F 29.9 in West 2.3 mph 2.3 mph 75 % 0 in
20:20 53.8 °F 43.2 °F 30 in WSW 1 mph 3 mph 67 % 0 in
20:23 61.9 °F 54.1 °F 29.9 in WSW 2.2 mph   76 % 0 in
20:28 61.5 °F 54.1 °F 29.9 in SW 1.2 mph   77 % 0 in
20:30 53.6 °F 43 °F 30 in Calm   2 mph 67 % 0 in
20:33 61 °F 53.4 °F 29.9 in WSW 2.9 mph 2.9 mph 76 % 0 in
20:38 60.6 °F 53.1 °F 29.9 in WSW 2.9 mph 2.9 mph 76 % 0 in
20:40 53.2 °F 42.6 °F 30 in WSW 2 mph 3 mph 67 % 0 in
20:43 60.4 °F 52.9 °F 29.9 in SW 2.6 mph 2.6 mph 76 % 0 in
20:48 60.4 °F 53.2 °F 29.9 in WSW 2.3 mph 2.3 mph 77 % 0 in
20:50 52.5 °F 42.3 °F 30 in WSW 2 mph 3 mph 68 % 0 in
20:53 60.4 °F 53.2 °F 29.9 in West 2.3 mph 2.3 mph 77 % 0 in
20:58 60.6 °F 53.4 °F 29.9 in West 2.3 mph 2.3 mph 77 % 0 in
21:00 52.7 °F 42.1 °F 30 in WSW 2 mph 3 mph 67 % 0 in
21:03 60.6 °F 53.8 °F 29.9 in SSW 2.3 mph 2.3 mph 78 % 0 in
21:08 60.6 °F 53.8 °F 29.9 in WSW 3.5 mph 3.5 mph 78 % 0 in
21:10 52.5 °F 42.3 °F 30 in Calm   2 mph 68 % 0 in
21:13 60.4 °F 53.2 °F 29.9 in SW 4.6 mph 4.6 mph 77 % 0 in
21:18 60.1 °F 52.5 °F 29.9 in WSW 5.8 mph 5.8 mph 76 % 0 in
21:20 52.2 °F 41.9 °F 30 in WSW 1 mph 2 mph 68 % 0 in
21:23 60.1 °F 52.5 °F 29.9 in West 3.5 mph 3.5 mph 76 % 0 in
21:28 60.1 °F 52.5 °F 29.9 in NW 4.6 mph 4.6 mph 76 % 0 in
21:30 51.6 °F 41 °F 30 in WSW 3 mph 3 mph 67 % 0 in
21:33 59.9 °F 52.3 °F 29.9 in WSW 6 mph 6 mph 76 % 0 in
21:38 59.7 °F 52.2 °F 29.9 in WSW 5.6 mph 5.6 mph 76 % 0 in
21:40 51.3 °F 41.2 °F 30 in WSW 2 mph 3 mph 68 % 0 in
21:43 59.5 °F 52 °F 29.9 in WSW 4.6 mph 4.6 mph 76 % 0 in
21:48 59.4 °F 51.4 °F 29.9 in WSW 5.8 mph 5.8 mph 75 % 0 in
21:53 59 °F 51.4 °F 29.9 in SW 9.7 mph 9.7 mph 76 % 0 in
21:58 58.8 °F 50.9 °F 29.9 in WSW 5.4 mph 5.4 mph 75 % 0.05 in
22:00 51.3 °F 40.6 °F 30 in West 1 mph 4 mph 67 % 0 in
22:03 58.5 °F 50.5 °F 29.9 in West 6.9 mph 6.9 mph 75 % 0.05 in
22:08 58.3 °F 50.7 °F 29.9 in SW 3.6 mph 3.6 mph 76 % 0.05 in
22:10 51.1 °F 40.8 °F 30 in WSW 1 mph 2 mph 68 % 0 in
22:13 58.1 °F 50.5 °F 29.9 in SW 3.1 mph 3.1 mph 76 % 0.05 in
22:18 57.9 °F 50 °F 29.9 in WSW 4.7 mph 4.7 mph 75 % 0.05 in
22:20 51.1 °F 40.8 °F 30 in Calm   2 mph 68 % 0 in
22:23 57.7 °F 49.8 °F 29.9 in West 3.5 mph 3.5 mph 75 % 0.05 in
22:28 57.6 °F 49.6 °F 29.9 in WSW 4.6 mph 4.6 mph 75 % 0.05 in
22:30 50.5 °F 40.5 °F 30.1 in ENE 2 mph 3 mph 68 % 0 in
22:33 57.6 °F 49.6 °F 29.9 in WSW 4.6 mph 4.6 mph 75 % 0.05 in
22:38 57.4 °F 49.8 °F 30 in SW 4.6 mph 4.6 mph 76 % 0.05 in
22:40 50.5 °F 40.5 °F 30.1 in WSW 2 mph 3 mph 68 % 0 in
22:43 57.2 °F 49.3 °F 30 in WSW 2.4 mph 2.4 mph 75 % 0.05 in
22:48 57 °F 49.3 °F 30 in NW 3.5 mph 3.5 mph 75 % 0.05 in
22:50 50.4 °F 40.3 °F 30.1 in Calm   3 mph 68 % 0 in
22:53 57 °F 49.3 °F 30 in West 2.3 mph 2.4 mph 75 % 0.05 in
22:58 57 °F 48.7 °F 30 in West 3.5 mph 3.5 mph 74 % 0 in
23:00 50.4 °F 40.3 °F 30.1 in WSW 1 mph 2 mph 68 % 0 in
23:03 56.8 °F 48.6 °F 30 in NNW 2.3 mph 2.3 mph 74 % 0 in
23:09 56.8 °F 48.6 °F 30 in WNW 3.5 mph 3.5 mph 74 % 0 in
23:10 50.4 °F 40.3 °F 30.1 in West 1 mph 2 mph 68 % 0 in
23:14 56.7 °F 48 °F 30 in SW 5.8 mph 5.8 mph 73 % 0 in
23:19 56.7 °F 48 °F 30 in West 3.5 mph 3.5 mph 73 % 0 in
23:20 50 °F 39.7 °F 30.1 in SW 1 mph 2 mph 68 % 0 in
23:24 56.5 °F 47.7 °F 30 in WSW 4.3 mph 4.3 mph 72 % 0 in
23:29 56.3 °F 47.5 °F 30 in WNW 3.5 mph 3.5 mph 72 % 0 in
23:30 50 °F 39.7 °F 30.1 in SW 2 mph 2 mph 68 % 0 in
23:34 56.1 °F 47.1 °F 30 in West 2.3 mph 2.3 mph 72 % 0 in
23:39 55.9 °F 46.9 °F 30 in SW 2.3 mph 2.3 mph 72 % 0 in
23:40 50 °F 40.3 °F 30 in Calm   2 mph 69 % 0 in
23:44 55.8 °F 46.6 °F 30 in WSW 4.6 mph 4.6 mph 71 % 0 in
23:49 55.8 °F 46.6 °F 30 in West 2.3 mph 2.3 mph 71 % 0 in
23:50 50.2 °F 40.5 °F 30 in NNW 2 mph 3 mph 69 % 0 in
23:54 55.6 °F 45.9 °F 30 in SW 2.3 mph 2.3 mph 70 % 0 in
23:59 55.4 °F 46.2 °F 30 in West 2 mph   71 % 0 in
Meteo Sesrovires
Elogis d' Weather Underground - 3.75 mb

Guio original per  Jim McMurry - jmcmurry@mwt.net Adaptat per a la plantilla per  Wim van der Kuil - Leuven-Template.eu

Trobareu la nostra informacio del temps tambe a:

Weather Underground

AWEKAS